Time;durP1;ratioP1;P1;durP2;ratioP2;P2;SDS_P1;SDS_P2;PMS_P1;PMS_P2;Temp;Humidity;BMP_temperature;BMP_pressure;BME280_temperature;BME280_humidity;BME280_pressure;Samples;Min_cycle;Max_cycle;Signal;HPM_P1;HPM_P2
2022/09/09 00:02:01;;;;;;;7.22;1.77;;;;;;;26.96;41.06;101097.78;4193552;28;20093;-61
2022/09/09 00:04:27;;;;;;;10.32;2.17;;;;;;;26.98;41.15;101103.91;4208221;28;20094;-61
2022/09/09 00:06:35;;;;;;;6.55;1.73;;;;;;;27.02;41.21;101104.91;4184663;28;20048;-63
2022/09/09 00:08:51;;;;;;;6.10;2.20;;;;;;;27.01;41.34;101108.88;4185296;28;20121;-61
2022/09/09 00:10:59;;;;;;;6.45;1.50;;;;;;;27.02;41.41;101102.94;4199102;28;20089;-63
2022/09/09 00:13:24;;;;;;;7.93;1.80;;;;;;;27.03;41.00;101106.56;4204381;28;20085;-63
2022/09/09 00:15:42;;;;;;;4.72;2.20;;;;;;;27.04;41.09;101108.25;4183556;28;20044;-61
2022/09/09 00:18:03;;;;;;;4.35;1.60;;;;;;;27.04;41.38;101108.25;4183307;28;20037;-63
2022/09/09 00:20:20;;;;;;;5.20;1.73;;;;;;;27.04;41.19;101113.88;4183433;28;20041;-61
2022/09/09 00:22:27;;;;;;;6.20;2.30;;;;;;;26.88;41.25;101088.13;4205718;28;20078;-60
2022/09/09 00:24:49;;;;;;;5.13;1.80;;;;;;;27.04;41.41;101117.50;4215087;28;20441;-61
2022/09/09 00:26:57;;;;;;;5.72;1.70;;;;;;;27.04;41.22;101119.50;4212124;28;20386;-61
2022/09/09 00:29:08;;;;;;;4.05;1.80;;;;;;;27.04;41.62;101128.75;4210604;28;20493;-61
2022/09/09 00:31:25;;;;;;;4.22;1.60;;;;;;;27.03;41.49;101129.03;4197750;28;20552;-61
2022/09/09 00:33:27;;;;;;;2.75;1.80;;;;;;;27.00;41.17;101129.69;4216739;28;20402;-61
2022/09/09 00:35:36;;;;;;;3.47;1.98;;;;;;;27.05;41.62;101140.81;4208904;28;20093;-61
2022/09/09 00:37:41;;;;;;;4.32;1.90;;;;;;;27.05;41.43;101138.00;4197553;28;20105;-61
2022/09/09 00:39:47;;;;;;;4.10;1.70;;;;;;;27.04;41.35;101141.97;4189860;28;20164;-61
2022/09/09 00:42:14;;;;;;;3.20;1.85;;;;;;;26.99;41.68;101139.28;4196611;28;20041;-64
2022/09/09 00:44:36;;;;;;;4.03;2.13;;;;;;;27.04;41.50;101147.56;4183307;28;20381;-62
2022/09/09 00:46:41;;;;;;;4.40;2.00;;;;;;;27.06;41.53;101148.06;4210203;28;20572;-61
2022/09/09 00:48:55;;;;;;;3.35;2.08;;;;;;;27.05;41.62;101149.22;4188014;28;20045;-61
2022/09/09 00:51:06;;;;;;;4.63;2.20;;;;;;;27.06;41.60;101150.88;4203911;28;20429;-61
2022/09/09 00:53:17;;;;;;;6.25;2.08;;;;;;;27.06;41.43;101151.72;4201394;28;20487;-61
2022/09/09 00:55:52;;;;;;;3.92;1.85;;;;;;;27.04;41.50;101158.81;4213787;28;20097;-62
2022/09/09 00:57:53;;;;;;;3.75;1.90;;;;;;;27.08;41.90;101168.25;4211825;28;20045;-65
2022/09/09 01:00:21;;;;;;;3.92;2.03;;;;;;;27.04;41.71;101158.81;4204444;28;20105;-62
2022/09/09 01:02:57;;;;;;;4.57;2.10;;;;;;;27.05;41.54;101168.88;4203481;28;20048;-62
2022/09/09 01:05:20;;;;;;;4.07;1.85;;;;;;;27.06;41.60;101164.94;4192934;28;20098;-62
2022/09/09 01:07:21;;;;;;;5.10;1.90;;;;;;;27.09;41.67;101158.72;4185983;28;20044;-62
2022/09/09 01:09:32;;;;;;;2.92;1.88;;;;;;;27.09;41.88;101164.34;4188087;28;20087;-63
2022/09/09 01:11:52;;;;;;;4.60;2.28;;;;;;;27.05;41.60;101166.09;4196806;28;20114;-63
2022/09/09 01:14:10;;;;;;;4.03;1.85;;;;;;;27.07;41.87;101169.38;4195457;28;20041;-63
2022/09/09 01:16:11;;;;;;;4.00;1.92;;;;;;;27.04;41.72;101170.03;4200470;28;20434;-62
2022/09/09 01:18:21;;;;;;;2.78;1.73;;;;;;;27.07;42.10;101172.19;4197604;28;20580;-63
2022/09/09 01:20:47;;;;;;;4.18;2.38;;;;;;;27.04;41.85;101186.91;4195360;28;20541;-63
2022/09/09 01:22:50;;;;;;;;;;;;;;;27.07;41.84;101187.06;4198541;28;20506;-63
2022/09/09 01:25:43;;;;;;;6.60;2.22;;;;;;;27.10;41.52;101185.66;4199528;28;19966;-63
2022/09/09 01:27:50;;;;;;;4.75;2.00;;;;;;;26.76;41.39;101136.44;4169178;28;20447;-63
2022/09/09 01:29:51;;;;;;;3.08;2.00;;;;;;;27.15;41.98;101198.75;4187545;28;20028;-63
2022/09/09 01:31:56;;;;;;;4.05;2.03;;;;;;;27.02;42.09;101189.19;4203586;28;20154;-63
2022/09/09 01:33:57;;;;;;;4.05;1.98;;;;;;;27.09;41.86;101207.28;4196588;28;20086;-62
2022/09/09 01:36:18;;;;;;;3.72;2.10;;;;;;;27.03;41.94;101202.06;4199440;28;20067;-62
2022/09/09 01:38:20;;;;;;;3.22;1.90;;;;;;;27.10;41.98;101224.97;4201202;28;20101;-61
2022/09/09 01:40:25;;;;;;;4.60;2.05;;;;;;;27.09;42.12;101218.53;4203446;28;20421;-62
2022/09/09 01:42:29;;;;;;;4.35;1.83;;;;;;;27.09;42.06;101223.31;4211051;28;20052;-61
2022/09/09 01:44:34;;;;;;;3.00;2.37;;;;;;;27.10;42.15;101219.34;4214491;28;20070;-63
2022/09/09 01:46:35;;;;;;;3.20;1.98;;;;;;;27.09;42.24;101218.53;4204082;28;20040;-62
2022/09/09 01:48:40;;;;;;;3.92;2.13;;;;;;;27.10;42.16;101219.34;4210009;28;20077;-61
2022/09/09 01:50:42;;;;;;;4.82;2.30;;;;;;;27.02;42.19;101203.22;4212736;28;20048;-62
2022/09/09 01:52:47;;;;;;;2.65;1.95;;;;;;;27.09;42.36;101224.16;4212987;28;20040;-61
2022/09/09 01:54:51;;;;;;;9.30;2.00;;;;;;;27.08;42.15;101216.03;4211544;28;20032;-62
2022/09/09 01:57:20;;;;;;;3.53;2.20;;;;;;;27.06;42.25;101212.69;4187936;28;20044;-61
2022/09/09 01:59:42;;;;;;;2.90;2.10;;;;;;;27.08;42.47;101216.03;4210203;28;20044;-62
2022/09/09 02:01:46;;;;;;;3.28;2.20;;;;;;;27.11;42.41;101223.81;4215312;28;20120;-62
2022/09/09 02:03:52;;;;;;;3.75;1.75;;;;;;;27.10;42.18;101228.63;4212084;28;20040;-61
2022/09/09 02:06:15;;;;;;;4.15;2.22;;;;;;;27.10;42.48;101230.59;4215421;28;20089;-62
2022/09/09 02:08:23;;;;;;;4.15;2.30;;;;;;;27.10;42.54;101230.59;4209362;28;20036;-61
2022/09/09 02:10:39;;;;;;;6.05;2.10;;;;;;;27.09;42.45;101229.75;4207849;28;20125;-62
2022/09/09 02:12:45;;;;;;;3.40;1.85;;;;;;;27.10;42.59;101236.22;4188014;28;20053;-62
2022/09/09 02:14:55;;;;;;;3.33;2.10;;;;;;;27.07;42.46;101228.38;4208296;28;20101;-63
2022/09/09 02:17:11;;;;;;;2.80;1.92;;;;;;;27.08;42.37;101227.25;4181981;28;20099;-63
2022/09/09 02:19:34;;;;;;;3.75;2.22;;;;;;;27.10;42.50;101224.97;4203483;28;20040;-63
2022/09/09 02:21:36;;;;;;;4.10;1.77;;;;;;;27.12;43.03;101233.91;4214895;28;20457;-63
2022/09/09 02:23:40;;;;;;;5.90;2.30;;;;;;;27.09;42.90;101240.19;4208841;28;20036;-63
2022/09/09 02:25:44;;;;;;;4.45;1.90;;;;;;;27.11;43.08;101244.31;4215422;28;20036;-63
2022/09/09 02:27:49;;;;;;;3.15;2.13;;;;;;;27.00;42.65;101216.75;4187406;28;20033;-63
2022/09/09 02:29:56;;;;;;;4.03;2.33;;;;;;;27.04;42.91;101231.84;4199449;28;20103;-63
2022/09/09 02:32:06;;;;;;;2.00;1.60;;;;;;;27.11;43.16;101238.69;4196441;28;20608;-63
2022/09/09 02:34:12;;;;;;;1.92;1.67;;;;;;;27.12;42.98;101239.53;4198303;28;20040;-62
2022/09/09 02:36:16;;;;;;;2.50;1.83;;;;;;;27.13;43.08;101246.81;4212562;28;20117;-62
2022/09/09 02:38:23;;;;;;;2.47;2.05;;;;;;;27.13;42.83;101248.81;4195973;28;20041;-63
2022/09/09 02:40:24;;;;;;;2.15;1.98;;;;;;;27.11;42.95;101243.47;4201074;28;20082;-63
2022/09/09 02:42:25;;;;;;;3.83;1.80;;;;;;;27.12;43.07;101245.13;4188093;28;20048;-63
2022/09/09 02:44:30;;;;;;;1.80;1.70;;;;;;;27.12;42.94;101239.53;4210311;28;20044;-63
2022/09/09 02:46:46;;;;;;;4.70;2.35;;;;;;;27.11;43.29;101246.28;4207586;28;20045;-63
2022/09/09 02:49:16;;;;;;;3.35;2.17;;;;;;;27.10;43.20;101241.81;4211244;28;20089;-63
2022/09/09 02:51:55;;;;;;;3.08;2.17;;;;;;;27.08;43.10;101250.59;4197986;28;20449;-62
2022/09/09 02:54:16;;;;;;;4.93;2.03;;;;;;;27.13;44.47;101255.25;4138031;28;20151;-62
2022/09/09 02:56:24;;;;;;;2.20;1.48;;;;;;;27.13;44.35;101252.44;4185890;28;20491;-62
2022/09/09 02:58:26;;;;;;;2.53;1.33;;;;;;;27.13;44.00;101252.44;4214365;28;20101;-62
2022/09/09 03:00:30;;;;;;;5.85;1.92;;;;;;;27.11;44.68;101252.75;4208655;28;20080;-62
2022/09/09 03:02:34;;;;;;;4.35;2.00;;;;;;;27.11;44.26;101249.09;4214148;28;20040;-62
2022/09/09 03:04:36;;;;;;;3.40;2.03;;;;;;;26.99;44.55;101240.38;4187388;28;20550;-62
2022/09/09 03:06:37;;;;;;;2.85;1.98;;;;;;;27.04;44.51;101243.06;4209831;28;20525;-62
2022/09/09 03:08:38;;;;;;;5.07;1.90;;;;;;;27.11;44.46;101251.91;4208388;28;20113;-62
2022/09/09 03:10:40;;;;;;;5.10;2.00;;;;;;;26.76;44.70;101197.38;4213705;28;20048;-62
2022/09/09 03:12:41;;;;;;;2.65;1.92;;;;;;;27.11;44.97;101254.72;4194850;28;20041;-62
2022/09/09 03:14:45;;;;;;;14.70;2.42;;;;;;;27.10;44.21;101259.50;4198663;28;20426;-61
2022/09/09 03:16:52;;;;;;;3.92;1.85;;;;;;;27.14;44.13;101253.28;4214156;28;20541;-61
2022/09/09 03:18:53;;;;;;;6.63;2.13;;;;;;;27.15;43.81;101250.13;4206562;28;20036;-61
2022/09/09 03:21:00;;;;;;;5.15;2.08;;;;;;;27.16;43.87;101256.59;4211260;28;20048;-61
2022/09/09 03:23:02;;;;;;;4.53;1.95;;;;;;;27.16;43.81;101254.59;4204435;28;20105;-61
2022/09/09 03:25:04;;;;;;;4.00;1.70;;;;;;;27.17;43.92;101259.09;4195763;28;20442;-61
2022/09/09 03:27:06;;;;;;;2.95;2.10;;;;;;;27.17;43.53;101264.72;4197732;28;20040;-61
2022/09/09 03:29:13;;;;;;;3.45;1.88;;;;;;;27.16;43.87;101263.03;4197516;28;20117;-62
2022/09/09 03:31:14;;;;;;;9.98;2.17;;;;;;;27.16;43.55;101251.78;4197352;28;20431;-62
2022/09/09 03:33:16;;;;;;;4.45;2.00;;;;;;;27.17;43.88;101256.28;4197119;28;20098;-61
2022/09/09 03:35:17;;;;;;;5.18;2.72;;;;;;;27.17;43.84;101255.44;4197395;28;20106;-62
2022/09/09 03:37:19;;;;;;;4.45;1.80;;;;;;;27.14;43.49;101261.69;4197566;28;20037;-61
2022/09/09 03:39:21;;;;;;;2.85;1.98;;;;;;;27.17;43.59;101263.84;4197583;28;20113;-61
2022/09/09 03:41:23;;;;;;;3.15;1.80;;;;;;;26.99;43.71;101232.78;4196837;28;20045;-61
2022/09/09 03:43:26;;;;;;;2.42;2.20;;;;;;;27.16;43.73;101263.03;4184781;28;20576;-61
2022/09/09 03:45:27;;;;;;;6.22;2.03;;;;;;;27.17;43.66;101269.47;4183843;28;20037;-61
2022/09/09 03:47:29;;;;;;;4.60;1.90;;;;;;;27.17;43.80;101270.34;4184876;28;20094;-61
2022/09/09 03:49:36;;;;;;;4.72;2.13;;;;;;;27.16;43.62;101274.25;4183855;28;20384;-61
2022/09/09 03:51:40;;;;;;;8.75;2.40;;;;;;;27.16;43.84;101282.69;4186559;28;20091;-61
2022/09/09 03:53:42;;;;;;;5.55;1.90;;;;;;;27.16;43.59;101285.50;4184591;28;20183;-61
2022/09/09 03:55:46;;;;;;;3.33;2.05;;;;;;;27.17;43.47;101287.19;4183902;28;20373;-61
2022/09/09 03:57:47;;;;;;;3.90;1.83;;;;;;;27.16;43.45;101291.13;4183696;28;20037;-61
2022/09/09 03:59:48;;;;;;;5.53;1.92;;;;;;;27.17;43.60;101297.56;4186310;28;20099;-61
2022/09/09 04:01:52;;;;;;;1.85;1.52;;;;;;;27.15;43.61;101294.25;4217232;28;20082;-61
2022/09/09 04:03:57;;;;;;;2.38;1.85;;;;;;;27.17;43.64;101298.44;4217327;28;20105;-61
2022/09/09 04:06:01;;;;;;;6.75;1.70;;;;;;;27.17;43.59;101298.44;4203224;28;20086;-61
2022/09/09 04:08:03;;;;;;;4.83;1.47;;;;;;;27.17;43.42;101298.44;4185278;28;20044;-61
2022/09/09 04:10:05;;;;;;;2.58;1.73;;;;;;;27.11;43.85;101294.03;4184212;28;20826;-61
2022/09/09 04:12:06;;;;;;;2.30;1.67;;;;;;;27.17;43.49;101304.03;4183197;28;20098;-61
2022/09/09 04:14:08;;;;;;;4.22;1.67;;;;;;;27.17;43.40;101306.84;4187183;28;20074;-61
2022/09/09 04:16:13;;;;;;;3.15;1.60;;;;;;;27.17;43.64;101303.19;4199994;28;20457;-61
2022/09/09 04:18:14;;;;;;;4.07;2.00;;;;;;;27.18;43.38;101310.50;4201941;28;20052;-62
2022/09/09 04:20:16;;;;;;;2.90;1.80;;;;;;;27.17;43.83;101311.63;4216573;28;20117;-61
2022/09/09 04:22:21;;;;;;;3.33;1.48;;;;;;;27.01;43.73;101283.00;4209161;28;20033;-61
2022/09/09 04:24:27;;;;;;;2.63;1.83;;;;;;;27.16;43.47;101307.16;4199394;28;20483;-61
2022/09/09 04:26:28;;;;;;;2.53;1.73;;;;;;;27.17;43.34;101308.81;4200125;28;20097;-61
2022/09/09 04:28:32;;;;;;;3.95;1.95;;;;;;;27.17;43.27;101318.09;4199740;28;20033;-61
2022/09/09 04:30:39;;;;;;;1.88;1.50;;;;;;;26.98;43.47;101289.25;4195595;28;20036;-61
2022/09/09 04:32:40;;;;;;;2.30;1.83;;;;;;;27.17;43.66;101326.53;4183524;28;20435;-61
2022/09/09 04:34:42;;;;;;;3.30;1.80;;;;;;;27.16;43.48;101313.59;4191817;28;20040;-61
2022/09/09 04:36:43;;;;;;;2.20;1.60;;;;;;;27.16;43.63;101326.81;4197948;28;20094;-61
2022/09/09 04:38:45;;;;;;;6.15;1.80;;;;;;;27.15;43.32;101319.53;4199672;28;20040;-62
2022/09/09 04:40:47;;;;;;;4.63;1.65;;;;;;;27.17;43.74;101322.84;4212798;28;20068;-61
2022/09/09 04:42:51;;;;;;;2.83;2.00;;;;;;;27.14;43.55;101318.72;4200751;28;20422;-62
2022/09/09 04:44:55;;;;;;;3.65;1.83;;;;;;;27.15;43.36;101323.19;4199489;28;20106;-61
2022/09/09 04:46:57;;;;;;;2.30;1.65;;;;;;;27.17;43.85;101332.13;4199461;28;20091;-61
2022/09/09 04:49:01;;;;;;;5.50;2.22;;;;;;;27.15;43.77;101337.22;4189917;28;20078;-62
2022/09/09 04:51:07;;;;;;;1.77;1.50;;;;;;;27.18;43.46;101338.59;4195608;28;20094;-62
2022/09/09 04:53:14;;;;;;;3.05;2.05;;;;;;;27.18;43.88;101335.78;4202469;28;20032;-62
2022/09/09 04:55:18;;;;;;;3.88;1.70;;;;;;;27.18;43.93;101333.78;4215789;28;20101;-62
2022/09/09 04:57:20;;;;;;;2.30;1.75;;;;;;;27.18;43.90;101345.03;4199427;28;20036;-61
2022/09/09 04:59:21;;;;;;;4.32;1.90;;;;;;;27.18;43.97;101356.28;4199888;28;20121;-62
2022/09/09 05:01:24;;;;;;;4.10;2.05;;;;;;;27.18;43.53;101356.28;4199276;28;20098;-62
2022/09/09 05:03:31;;;;;;;4.63;1.60;;;;;;;27.17;43.84;101365.84;4199575;28;20040;-62
2022/09/09 05:05:34;;;;;;;2.63;1.90;;;;;;;27.18;43.50;101356.28;4199881;28;20040;-62
2022/09/09 05:07:38;;;;;;;2.40;1.63;;;;;;;27.18;43.75;101350.66;4199534;28;20090;-62
2022/09/09 05:09:39;;;;;;;1.73;1.23;;;;;;;27.18;43.81;101361.06;4195635;28;20557;-62
2022/09/09 05:11:41;;;;;;;3.03;1.55;;;;;;;27.18;43.95;101350.66;4183998;28;20098;-62
2022/09/09 05:13:44;;;;;;;2.83;1.70;;;;;;;27.18;43.89;101350.66;4198773;28;20101;-61
2022/09/09 05:15:57;;;;;;;2.83;1.70;;;;;;;27.17;43.63;101349.00;4206267;28;20484;-61
2022/09/09 05:18:00;;;;;;;2.35;1.80;;;;;;;27.18;43.61;101347.00;4199297;28;20036;-62
2022/09/09 05:20:02;;;;;;;3.05;1.70;;;;;;;27.18;43.50;101356.28;4210460;28;20093;-62
2022/09/09 05:22:04;;;;;;;3.05;1.65;;;;;;;27.14;43.53;101346.81;4215711;28;20093;-62
2022/09/09 05:24:06;;;;;;;2.10;1.40;;;;;;;27.18;43.59;101356.28;4215950;28;20039;-61
2022/09/09 05:26:12;;;;;;;6.47;1.77;;;;;;;27.16;43.63;101352.94;4204413;28;20048;-61
2022/09/09 05:28:14;;;;;;;3.63;1.75;;;;;;;27.18;43.88;101361.88;4199639;28;20044;-61
2022/09/09 05:30:19;;;;;;;1.98;1.77;;;;;;;27.18;43.51;101355.44;4199918;28;20086;-62
2022/09/09 05:32:20;;;;;;;2.03;1.73;;;;;;;27.17;43.97;101354.63;4198561;28;20045;-61
2022/09/09 05:34:22;;;;;;;2.25;1.90;;;;;;;27.09;43.53;101352.53;4199015;28;20032;-61
2022/09/09 05:36:23;;;;;;;5.45;1.73;;;;;;;27.18;43.65;101361.88;4196025;28;20753;-61
2022/09/09 05:38:25;;;;;;;5.40;1.60;;;;;;;27.18;43.75;101367.50;4196453;28;20378;-61
2022/09/09 05:40:26;;;;;;;2.13;1.60;;;;;;;27.15;43.86;101356.88;4199106;28;20090;-62
2022/09/09 05:42:32;;;;;;;2.25;1.63;;;;;;;27.17;43.61;101360.22;4198632;28;20040;-61
2022/09/09 05:44:33;;;;;;;1.73;1.50;;;;;;;27.16;43.69;101357.72;4193754;28;20115;-61
2022/09/09 05:46:34;;;;;;;1.67;1.50;;;;;;;27.18;43.81;101367.50;4189115;28;20037;-62
2022/09/09 05:48:41;;;;;;;2.10;1.63;;;;;;;27.17;43.90;101357.44;4198104;28;20032;-61
2022/09/09 05:50:52;;;;;;;1.85;1.60;;;;;;;26.98;43.88;101325.75;4198551;28;20040;-61
2022/09/09 05:52:54;;;;;;;2.47;1.40;;;;;;;27.03;43.86;101328.44;4195312;28;20446;-61
2022/09/09 05:54:56;;;;;;;3.78;1.52;;;;;;;27.17;43.63;101354.63;4198306;28;20443;-61
2022/09/09 05:56:59;;;;;;;3.00;1.73;;;;;;;27.17;43.52;101354.63;4198521;28;20479;-61
2022/09/09 05:59:00;;;;;;;2.58;1.50;;;;;;;27.17;43.44;101353.75;4198480;28;20094;-61
2022/09/09 06:01:13;;;;;;;2.20;1.88;;;;;;;27.02;43.76;101330.44;4198034;28;20538;-62
2022/09/09 06:03:15;;;;;;;2.83;1.27;;;;;;;27.18;43.93;101345.03;4198025;28;20048;-62
2022/09/09 06:05:20;;;;;;;1.70;1.60;;;;;;;26.95;43.52;101306.75;4197364;28;20032;-61
2022/09/09 06:07:21;;;;;;;1.85;1.42;;;;;;;27.18;43.53;101339.41;4185176;28;20049;-61
2022/09/09 06:09:22;;;;;;;2.25;1.60;;;;;;;27.18;43.94;101339.41;4198557;28;20036;-60
2022/09/09 06:11:26;;;;;;;2.58;1.77;;;;;;;27.18;43.62;101345.03;4197682;28;20090;-61
2022/09/09 06:13:27;;;;;;;1.65;1.48;;;;;;;27.17;43.89;101337.75;4198390;28;20446;-62
2022/09/09 06:15:30;;;;;;;3.65;1.83;;;;;;;27.18;43.50;101345.03;4198090;28;20037;-61
2022/09/09 06:17:31;;;;;;;2.20;1.48;;;;;;;27.16;43.76;101336.06;4198507;28;20110;-61
2022/09/09 06:19:32;;;;;;;2.00;1.80;;;;;;;27.17;43.46;101336.91;4198410;28;20110;-61
2022/09/09 06:21:36;;;;;;;4.43;1.75;;;;;;;27.16;43.50;101344.50;4197774;28;20106;-61
2022/09/09 06:23:40;;;;;;;3.05;2.13;;;;;;;26.96;43.95;101308.41;4197875;28;20101;-61
2022/09/09 06:25:44;;;;;;;3.38;1.77;;;;;;;27.18;43.58;101333.78;4195320;28;20182;-60
2022/09/09 06:27:51;;;;;;;1.83;1.45;;;;;;;27.16;43.52;101338.88;4205369;28;20032;-61
2022/09/09 06:29:52;;;;;;;1.70;1.40;;;;;;;27.17;43.83;101337.75;4182992;28;20126;-61
2022/09/09 06:31:53;;;;;;;2.40;1.73;;;;;;;27.17;43.81;101337.75;4197446;28;20032;-61
2022/09/09 06:33:55;;;;;;;2.45;1.60;;;;;;;27.17;43.82;101343.38;4197989;28;20044;-61
2022/09/09 06:35:56;;;;;;;3.13;1.55;;;;;;;27.14;43.55;101335.56;4200021;28;20032;-61
2022/09/09 06:37:58;;;;;;;2.28;1.30;;;;;;;27.17;43.47;101340.56;4202730;28;20110;-61
2022/09/09 06:39:59;;;;;;;2.83;1.42;;;;;;;27.14;43.48;101344.00;4197681;28;20071;-61
2022/09/09 06:42:00;;;;;;;2.00;1.50;;;;;;;27.17;43.90;101346.19;4197719;28;20040;-61
2022/09/09 06:44:03;;;;;;;2.05;1.52;;;;;;;27.14;43.50;101343.16;4197938;28;20117;-60
2022/09/09 06:46:08;;;;;;;1.35;1.25;;;;;;;27.18;43.62;101355.44;4198018;28;20101;-60
2022/09/09 06:48:09;;;;;;;2.22;1.52;;;;;;;27.16;43.60;101344.50;4198302;28;20533;-61
2022/09/09 06:50:10;;;;;;;1.50;1.40;;;;;;;27.16;43.67;101352.94;4197900;28;20149;-61
2022/09/09 06:52:15;;;;;;;1.60;1.50;;;;;;;27.17;43.81;101354.63;4197360;28;20041;-60
2022/09/09 06:54:16;;;;;;;1.98;1.55;;;;;;;27.17;43.49;101354.63;4197141;28;20090;-61
2022/09/09 06:56:17;;;;;;;1.75;1.50;;;;;;;27.18;43.93;101356.28;4204622;28;20097;-60
2022/09/09 06:58:21;;;;;;;3.10;1.88;;;;;;;27.18;43.68;101358.25;4214325;28;20088;-60
2022/09/09 07:00:23;;;;;;;1.55;1.42;;;;;;;27.17;43.90;101354.63;4214282;28;20093;-61
2022/09/09 07:02:25;;;;;;;2.40;1.40;;;;;;;27.18;43.67;101355.44;4183819;28;20036;-61
2022/09/09 07:04:26;;;;;;;2.95;1.55;;;;;;;27.17;43.54;101346.19;4197305;28;20094;-61
2022/09/09 07:06:39;;;;;;;1.70;1.50;;;;;;;27.13;43.59;101350.75;4197591;28;20041;-61
2022/09/09 07:08:41;;;;;;;1.52;1.38;;;;;;;27.18;43.75;101356.28;4181121;28;20048;-61
2022/09/09 07:10:44;;;;;;;2.22;1.70;;;;;;;27.09;43.74;101344.94;4180467;28;20037;-61
2022/09/09 07:12:51;;;;;;;1.40;1.30;;;;;;;27.17;43.61;101360.22;4192433;28;20028;-60
2022/09/09 07:14:55;;;;;;;1.85;1.60;;;;;;;27.10;43.91;101343.78;4197544;28;20492;-61
2022/09/09 07:16:57;;;;;;;1.95;1.30;;;;;;;27.18;43.87;101356.28;4197286;28;20553;-61
2022/09/09 07:18:58;;;;;;;1.70;1.42;;;;;;;27.08;43.99;101342.41;4194569;28;20036;-61
2022/09/09 07:21:03;;;;;;;1.50;1.40;;;;;;;27.14;43.83;101360.03;4180386;28;20106;-60
2022/09/09 07:23:11;;;;;;;2.30;1.55;;;;;;;27.02;43.98;101336.06;4180469;28;20087;-61
2022/09/09 07:25:14;;;;;;;2.50;1.77;;;;;;;27.19;43.95;101365.53;4180577;28;20037;-60
2022/09/09 07:27:15;;;;;;;2.40;1.52;;;;;;;27.07;43.75;101343.53;4180429;28;20053;-61
2022/09/09 07:29:16;;;;;;;1.83;1.63;;;;;;;27.16;43.76;101355.72;4188137;28;20028;-61
2022/09/09 07:31:20;;;;;;;2.65;1.90;;;;;;;27.17;43.90;101354.63;4196243;28;20534;-61
2022/09/09 07:33:22;;;;;;;1.83;1.63;;;;;;;27.17;44.06;101359.38;4213063;28;20097;-61
2022/09/09 07:35:23;;;;;;;3.28;1.48;;;;;;;27.17;43.85;101360.22;4199588;28;20343;-60
2022/09/09 07:37:27;;;;;;;3.05;1.60;;;;;;;27.16;43.89;101358.53;4196344;28;20446;-61
2022/09/09 07:39:29;;;;;;;3.40;1.50;;;;;;;27.16;43.78;101363.34;4204471;28;20108;-61
2022/09/09 07:41:36;;;;;;;1.90;1.80;;;;;;;27.16;43.68;101363.34;4211173;28;20293;-60
2022/09/09 07:43:41;;;;;;;1.90;1.67;;;;;;;27.11;43.54;101358.66;4212739;28;20114;-61
2022/09/09 07:45:43;;;;;;;1.48;1.30;;;;;;;27.16;43.98;101361.34;4212001;28;20048;-61
2022/09/09 07:47:44;;;;;;;2.00;1.52;;;;;;;27.07;43.65;101349.16;4213017;28;20089;-61
2022/09/09 07:49:46;;;;;;;1.60;1.48;;;;;;;27.09;43.61;101347.75;4211619;28;20044;-61
2022/09/09 07:51:49;;;;;;;1.45;1.30;;;;;;;27.02;43.87;101335.22;4212603;28;20043;-61
2022/09/09 07:54:05;;;;;;;2.05;1.40;;;;;;;27.11;43.88;101355.84;4211859;28;20048;-61
2022/09/09 07:56:09;;;;;;;2.83;1.77;;;;;;;27.16;43.56;101366.97;4209419;28;20105;-61
2022/09/09 07:58:11;;;;;;;1.65;1.50;;;;;;;27.15;44.00;101359.69;4212915;28;20501;-61
2022/09/09 08:00:14;;;;;;;2.10;1.60;;;;;;;27.06;43.55;101348.31;4208890;28;20032;-60
2022/09/09 08:02:25;;;;;;;2.20;1.60;;;;;;;27.16;43.70;101366.97;4195834;28;20094;-62
2022/09/09 08:04:27;;;;;;;1.60;1.40;;;;;;;27.17;43.56;101370.59;4195955;28;20048;-61
2022/09/09 08:06:35;;;;;;;1.75;1.40;;;;;;;27.03;43.92;101336.88;4208594;28;20491;-61
2022/09/09 08:08:38;;;;;;;1.85;1.30;;;;;;;27.16;43.64;101354.91;4212714;28;20048;-61
2022/09/09 08:10:39;;;;;;;2.90;1.58;;;;;;;27.14;44.00;101360.03;4211907;28;20040;-61
2022/09/09 08:12:46;;;;;;;3.45;1.95;;;;;;;27.17;43.61;101365.00;4203235;28;20041;-61
2022/09/09 08:14:48;;;;;;;4.18;1.60;;;;;;;27.17;43.80;101359.38;4211765;28;20032;-61
2022/09/09 08:16:50;;;;;;;3.35;1.50;;;;;;;27.08;43.93;101360.13;4209921;28;20036;-62
2022/09/09 08:18:53;;;;;;;2.42;1.30;;;;;;;27.16;43.74;101369.78;4213863;28;20060;-62
2022/09/09 08:20:57;;;;;;;2.58;1.90;;;;;;;27.16;43.82;101368.94;4211392;28;20541;-61
2022/09/09 08:22:58;;;;;;;1.75;1.60;;;;;;;27.10;43.73;101368.25;4212663;28;20097;-61
2022/09/09 08:25:00;;;;;;;1.50;1.40;;;;;;;27.16;43.98;101378.22;4211270;28;20445;-61
2022/09/09 08:27:01;;;;;;;1.70;1.58;;;;;;;27.09;43.79;101364.59;4211407;28;20097;-61
2022/09/09 08:29:05;;;;;;;2.55;1.50;;;;;;;27.16;43.96;101372.59;4214051;28;20109;-61
2022/09/09 08:31:09;;;;;;;2.20;1.40;;;;;;;27.15;44.12;101379.38;4214762;28;20036;-61
2022/09/09 08:33:10;;;;;;;1.77;1.42;;;;;;;27.15;43.72;101379.38;4209339;28;20426;-61
2022/09/09 08:35:12;;;;;;;1.98;1.42;;;;;;;27.16;43.92;101381.03;4215142;28;20129;-61
2022/09/09 08:37:14;;;;;;;1.73;1.23;;;;;;;27.07;43.95;101366.00;4196981;28;20032;-61
2022/09/09 08:39:18;;;;;;;1.70;1.35;;;;;;;27.16;43.96;101386.63;4199696;28;20094;-61
2022/09/09 08:41:44;;;;;;;1.88;1.70;;;;;;;27.14;43.77;101383.31;4199423;28;20032;-61
2022/09/09 08:43:48;;;;;;;2.53;1.63;;;;;;;27.13;43.91;101392.91;4200158;28;20044;-61
2022/09/09 08:46:00;;;;;;;1.92;1.58;;;;;;;27.14;43.65;101386.13;4199848;28;20094;-61
2022/09/09 08:48:19;;;;;;;1.50;1.40;;;;;;;27.16;43.64;101395.06;4199662;28;20058;-61
2022/09/09 08:50:35;;;;;;;1.70;1.60;;;;;;;27.14;43.63;101391.75;4199808;28;20438;-61
2022/09/09 08:53:07;;;;;;;1.50;1.40;;;;;;;27.13;43.80;101390.09;4199551;28;20377;-61
2022/09/09 08:55:29;;;;;;;1.65;1.40;;;;;;;27.14;43.78;101400.19;4199460;28;20041;-61
2022/09/09 08:57:32;;;;;;;2.20;1.42;;;;;;;27.17;44.06;101402.38;4200683;28;20431;-61
2022/09/09 08:59:33;;;;;;;3.33;1.60;;;;;;;27.16;43.99;101403.50;4199707;28;20098;-61
2022/09/09 09:01:50;;;;;;;2.28;1.48;;;;;;;27.14;43.97;101399.34;4199290;28;20041;-61
2022/09/09 09:04:23;;;;;;;1.60;1.50;;;;;;;27.14;43.67;101408.59;4199361;28;20052;-61
2022/09/09 09:06:48;;;;;;;2.42;1.48;;;;;;;27.13;43.78;101394.88;4192352;28;20430;-61
2022/09/09 09:09:02;;;;;;;1.50;1.40;;;;;;;27.14;43.72;101394.56;4189399;28;20420;-61
2022/09/09 09:11:06;;;;;;;1.92;1.45;;;;;;;27.16;43.90;101403.50;4197240;28;20309;-61
2022/09/09 09:13:15;;;;;;;2.45;1.50;;;;;;;27.14;43.82;101405.78;4199222;28;20033;-61
2022/09/09 09:15:25;;;;;;;2.17;1.70;;;;;;;27.13;43.94;101401.34;4194753;28;20101;-61
2022/09/09 09:17:31;;;;;;;1.65;1.55;;;;;;;27.15;43.86;101406.63;4199339;28;20036;-61
2022/09/09 09:19:38;;;;;;;1.40;1.30;;;;;;;27.14;43.82;101405.78;4199707;28;20488;-61
2022/09/09 09:22:10;;;;;;;2.15;1.70;;;;;;;27.12;44.12;101405.25;4199072;28;20045;-61
2022/09/09 09:24:52;;;;;;;1.90;1.40;;;;;;;27.11;43.87;101407.25;4188480;28;20448;-61
2022/09/09 09:26:57;;;;;;;1.60;1.42;;;;;;;27.15;43.62;101410.25;4199381;28;20040;-61
2022/09/09 09:29:00;;;;;;;1.48;1.38;;;;;;;27.15;43.97;101413.06;4198748;28;20110;-61
2022/09/09 09:31:10;;;;;;;1.83;1.67;;;;;;;27.14;43.67;101419.84;4202214;28;20089;-61
2022/09/09 09:33:43;;;;;;;1.55;1.40;;;;;;;27.14;44.07;101417.03;4215980;28;20036;-61
2022/09/09 09:35:44;;;;;;;2.08;1.50;;;;;;;26.98;44.02;101390.34;4212940;28;20086;-61
2022/09/09 09:37:46;;;;;;;2.05;1.60;;;;;;;26.96;43.93;101392.66;4215491;28;20036;-61
2022/09/09 09:39:50;;;;;;;2.38;1.58;;;;;;;27.14;44.00;101424.63;4216103;28;20036;-61
2022/09/09 09:41:54;;;;;;;2.33;1.50;;;;;;;27.14;43.69;101425.47;4214221;28;20036;-61
2022/09/09 09:43:55;;;;;;;1.50;1.40;;;;;;;27.13;43.98;101426.63;4215497;28;20044;-61
2022/09/09 09:45:57;;;;;;;1.75;1.60;;;;;;;27.13;43.83;101425.78;4202200;28;20058;-61
2022/09/09 09:48:11;;;;;;;1.77;1.65;;;;;;;27.11;43.80;101428.88;4199035;28;20490;-61
2022/09/09 09:50:20;;;;;;;2.08;1.52;;;;;;;27.09;44.10;101431.19;4198844;28;20126;-61